CYOW/YOW METAR and TAF weather

Enter ICAO airport designator
Station Type Date Time Source
CYOW METAR 2018/12/10 17:00 UTC NOAA

CYOW 101700Z 30004KT 15SM FEW035 FEW100 M08/M15 A3024 RMK SC1AC1 SC TR AC TR SLP249


Station Type Date Time Source
CYOW Decoded METAR 2018/12/10 17:00 UTC NOAA

Ottawa Int'L. Ont., Canada (CYOW) 45-19N 075-40W 114M
Dec 10, 2018 - 12:00 PM EST / 2018.12.10 1700 UTC
Wind: from the WNW (300 degrees) at 5 MPH (4 KT):0
Visibility: 15 mile(s):0
Sky conditions: mostly clear
Temperature: 17 F (-8 C)
Windchill: 8 F (-13 C):1
Dew Point: 5 F (-15 C)
Relative Humidity: 57%
Pressure (altimeter): 30.24 in. Hg (1024 hPa)
ob: CYOW 101700Z 30004KT 15SM FEW035 FEW100 M08/M15 A3024 RMK SC1AC1 SC TR AC TR SLP249
cycle: 17

Station Type Date Time Source
CYOW TAF 2018/12/10 15:42 UTC NOAA

TAF CYOW 101438Z 1015/1112 36008KT P6SM FEW030
BECMG 1021/1023 VRB03KT
FM110400 VRB03KT P6SM FEW030 BKN180
FM110600 07005KT 5SM -SN BKN030 OVC200
RMK NXT FCST BY 101800Z


Example: see airport list